createdAt,value
2023-03-12T00:02:04.198Z,99660.55
2023-03-12T00:04:41.832Z,99662.09
2023-03-12T00:07:16.846Z,99655.23
2023-03-12T00:09:46.916Z,99651.64
2023-03-12T00:12:15.961Z,99651.30
2023-03-12T00:14:45.459Z,99648.23
2023-03-12T00:17:14.380Z,99644.96
2023-03-12T00:19:45.759Z,99643.94
2023-03-12T00:22:22.773Z,99642.58
2023-03-12T00:24:57.280Z,99647.36
2023-03-12T00:27:26.791Z,99643.61
2023-03-12T00:29:57.986Z,99642.06
2023-03-12T00:32:32.384Z,99646.86
2023-03-12T00:35:02.657Z,99646.69
2023-03-12T00:37:35.338Z,99642.24
2023-03-12T00:40:06.200Z,99643.44
2023-03-12T00:42:41.349Z,99641.05
2023-03-12T00:45:13.436Z,99640.88
2023-03-12T00:47:44.912Z,99642.23
2023-03-12T00:50:16.171Z,99640.70
2023-03-12T00:52:45.730Z,99636.61
2023-03-12T00:55:19.882Z,99639.52
2023-03-12T00:57:49.299Z,99638.67
2023-03-12T01:00:25.447Z,99637.30
2023-03-12T01:02:59.387Z,99635.10
2023-03-12T01:05:32.944Z,99636.30
2023-03-12T01:08:05.435Z,99634.76
2023-03-12T01:10:36.140Z,99639.54
2023-03-12T01:13:05.423Z,99638.86
2023-03-12T01:15:37.299Z,99640.92
2023-03-12T01:18:06.182Z,99640.06
2023-03-12T01:20:35.354Z,99642.63
2023-03-12T01:23:08.102Z,99639.39
2023-03-12T01:25:37.714Z,99640.06
2023-03-12T01:28:09.481Z,99641.09
2023-03-12T01:30:53.047Z,99637.67
2023-03-12T01:33:25.220Z,99636.31
2023-03-12T01:35:54.169Z,99632.22
2023-03-12T01:38:25.852Z,99631.36
2023-03-12T01:40:54.953Z,99628.75
2023-03-12T01:43:46.069Z,99631.66
2023-03-12T01:46:38.075Z,99633.39
2023-03-12T01:49:29.134Z,99633.40
2023-03-12T01:52:11.213Z,99630.67
2023-03-12T01:54:56.032Z,99632.05
2023-03-12T01:57:43.616Z,99630.17
2023-03-12T02:00:23.675Z,99632.06
2023-03-12T02:03:05.118Z,99634.45
2023-03-12T02:05:47.286Z,99635.13
2023-03-12T02:08:20.637Z,99635.98
2023-03-12T02:10:49.500Z,99640.27
2023-03-12T02:13:18.834Z,99643.50
2023-03-12T02:15:49.110Z,99640.27
2023-03-12T02:18:22.505Z,99642.14
2023-03-12T02:21:26.084Z,99648.98
2023-03-12T02:24:29.341Z,99651.21
2023-03-12T02:27:04.254Z,99653.27
2023-03-12T02:29:36.025Z,99656.33
2023-03-12T02:32:10.471Z,99655.96
2023-03-12T02:34:44.586Z,99654.23
2023-03-12T02:37:24.541Z,99656.08
2023-03-12T02:40:16.060Z,99661.18
2023-03-12T02:42:49.484Z,99658.59
2023-03-12T02:45:36.016Z,99663.02
2023-03-12T02:48:09.382Z,99667.27
2023-03-12T02:50:45.474Z,99668.77
2023-03-12T02:53:17.089Z,99674.06
2023-03-12T02:55:45.923Z,99671.98
2023-03-12T02:58:17.571Z,99676.59
2023-03-12T03:00:46.598Z,99679.31
2023-03-12T03:03:20.091Z,99681.18
2023-03-12T03:05:51.834Z,99678.95
2023-03-12T03:08:23.132Z,99679.11
2023-03-12T03:10:55.132Z,99680.15
2023-03-12T03:13:31.387Z,99680.67
2023-03-12T03:16:06.038Z,99677.93
2023-03-12T03:18:35.528Z,99675.86
2023-03-12T03:21:10.834Z,99676.55
2023-03-12T03:23:43.023Z,99681.69
2023-03-12T03:26:14.880Z,99685.27
2023-03-12T03:28:46.529Z,99689.55
2023-03-12T03:31:16.253Z,99688.35
2023-03-12T03:33:47.951Z,99689.96
2023-03-12T03:36:18.585Z,99691.69
2023-03-12T03:39:05.146Z,99692.55
2023-03-12T03:41:34.967Z,99694.77
2023-03-12T03:44:07.585Z,99697.19
2023-03-12T03:46:38.176Z,99698.22
2023-03-12T03:49:14.082Z,99704.05
2023-03-12T03:51:52.335Z,99707.67
2023-03-12T03:54:31.963Z,99704.08
2023-03-12T03:57:12.585Z,99706.48
2023-03-12T03:59:44.943Z,99712.84
2023-03-12T04:02:20.373Z,99715.07
2023-03-12T04:05:01.794Z,99718.50
2023-03-12T04:07:38.396Z,99716.47
2023-03-12T04:10:11.861Z,99719.89
2023-03-12T04:12:40.868Z,99723.66
2023-03-12T04:15:12.599Z,99725.88
2023-03-12T04:17:48.812Z,99725.89
2023-03-12T04:20:18.110Z,99730.34
2023-03-12T04:22:48.816Z,99731.88
2023-03-12T04:25:19.734Z,99734.25
2023-03-12T04:28:02.160Z,99738.00
2023-03-12T04:30:38.197Z,99737.46
2023-03-12T04:33:14.860Z,99738.13
2023-03-12T04:35:57.394Z,99735.55
2023-03-12T04:38:34.830Z,99727.31
2023-03-12T04:41:11.873Z,99729.73
2023-03-12T04:43:46.306Z,99732.48
2023-03-12T04:46:15.576Z,99733.52
2023-03-12T04:48:47.624Z,99737.78
2023-03-12T04:51:18.186Z,99740.86
2023-03-12T04:53:49.576Z,99741.38
2023-03-12T04:56:19.087Z,99740.02
2023-03-12T04:58:52.945Z,99744.82
2023-03-12T05:01:29.025Z,99747.56
2023-03-12T05:03:58.154Z,99749.11
2023-03-12T05:06:29.349Z,99753.05
2023-03-12T05:09:01.675Z,99753.05
2023-03-12T05:11:39.908Z,99756.30
2023-03-12T05:14:12.469Z,99758.34
2023-03-12T05:16:42.242Z,99762.64
2023-03-12T05:19:11.624Z,99768.97
2023-03-12T05:21:44.504Z,99774.45
2023-03-12T05:24:19.020Z,99781.62
2023-03-12T05:26:48.231Z,99782.63
2023-03-12T05:29:25.518Z,99785.70
2023-03-12T05:32:04.757Z,99786.89
2023-03-12T05:34:37.468Z,99792.02
2023-03-12T05:37:07.370Z,99793.52
2023-03-12T05:39:46.532Z,99795.73
2023-03-12T05:42:26.852Z,99802.21
2023-03-12T05:45:01.575Z,99806.13
2023-03-12T05:47:31.100Z,99810.41
2023-03-12T05:50:07.874Z,99816.72
2023-03-12T05:52:57.010Z,99816.02
2023-03-12T05:55:37.515Z,99823.36
2023-03-12T05:58:08.009Z,99825.91
2023-03-12T06:00:38.637Z,99827.62
2023-03-12T06:03:23.563Z,99834.13
2023-03-12T06:06:21.113Z,99835.17
2023-03-12T06:09:10.747Z,99841.50
2023-03-12T06:12:04.277Z,99846.45
2023-03-12T06:15:01.224Z,99846.64
2023-03-12T06:17:35.527Z,99847.48
2023-03-12T06:20:16.515Z,99858.07
2023-03-12T06:22:47.381Z,99862.81
2023-03-12T06:25:25.429Z,99863.45
2023-03-12T06:28:03.899Z,99867.83
2023-03-12T06:30:52.214Z,99878.90
2023-03-12T06:33:24.835Z,99886.40
2023-03-12T06:36:09.725Z,99885.52
2023-03-12T06:38:49.550Z,99889.80
2023-03-12T06:41:23.881Z,99898.17
2023-03-12T06:44:00.296Z,99897.45
2023-03-12T06:46:33.705Z,99903.08
2023-03-12T06:49:12.490Z,99905.42
2023-03-12T06:52:00.073Z,99912.80
2023-03-12T06:54:35.575Z,99917.75
2023-03-12T06:57:23.592Z,99918.20
2023-03-12T07:00:03.467Z,99918.27
2023-03-12T07:02:36.313Z,99922.95
2023-03-12T07:05:09.424Z,99919.02
2023-03-12T07:07:44.252Z,99918.95
2023-03-12T07:10:15.874Z,99924.61
2023-03-12T07:12:45.718Z,99921.70
2023-03-12T07:15:14.503Z,99930.73
2023-03-12T07:17:42.901Z,99936.29
2023-03-12T07:20:39.112Z,99934.63
2023-03-12T07:23:38.407Z,99934.37
2023-03-12T07:26:16.373Z,99938.89
2023-03-12T07:28:50.895Z,99935.38
2023-03-12T07:31:29.748Z,99933.67
2023-03-12T07:34:05.930Z,99940.04
2023-03-12T07:36:42.619Z,99934.77
2023-03-12T07:39:14.563Z,99933.49
2023-03-12T07:41:45.098Z,99937.16
2023-03-12T07:44:14.435Z,99939.95
2023-03-12T07:46:43.782Z,99940.92
2023-03-12T07:49:17.808Z,99941.08
2023-03-12T07:51:50.223Z,99937.09
2023-03-12T07:54:19.551Z,99937.76
2023-03-12T07:56:56.518Z,99937.28
2023-03-12T07:59:26.563Z,99940.52
2023-03-12T08:01:55.206Z,99945.52
2023-03-12T08:04:25.622Z,99951.45
2023-03-12T08:06:54.879Z,99955.14
2023-03-12T08:09:29.453Z,99952.27
2023-03-12T08:12:01.664Z,99953.59
2023-03-12T08:14:46.767Z,99957.80
2023-03-12T08:17:26.851Z,99956.05
2023-03-12T08:20:11.525Z,99964.95
2023-03-12T08:22:55.709Z,99971.06
2023-03-12T08:25:28.604Z,99969.83
2023-03-12T08:28:02.016Z,99972.77
2023-03-12T08:30:38.029Z,99971.02
2023-03-12T08:33:14.378Z,99976.09
2023-03-12T08:35:51.384Z,99978.71
2023-03-12T08:38:22.278Z,99982.90
2023-03-12T08:41:05.215Z,99986.95
2023-03-12T08:43:37.367Z,99984.12
2023-03-12T08:46:06.523Z,99986.97
2023-03-12T08:48:41.128Z,99994.16
2023-03-12T08:51:19.227Z,99997.63
2023-03-12T08:53:54.928Z,99995.80
2023-03-12T08:56:23.706Z,99999.70
2023-03-12T08:59:06.917Z,100001.86
2023-03-12T09:01:43.717Z,100001.44
2023-03-12T09:04:17.693Z,100004.28
2023-03-12T09:06:59.362Z,100004.73
2023-03-12T09:09:36.567Z,100003.52
2023-03-12T09:12:19.327Z,100007.17
2023-03-12T09:15:03.399Z,100009.46
2023-03-12T09:17:37.537Z,100005.19
2023-03-12T09:20:14.252Z,100005.27
2023-03-12T09:22:53.075Z,100007.18
2023-03-12T09:25:23.186Z,100006.36
2023-03-12T09:28:03.960Z,100008.50
2023-03-12T09:30:36.312Z,100003.13
2023-03-12T09:33:07.346Z,100001.34
2023-03-12T09:35:37.372Z,100000.98
2023-03-12T09:38:15.150Z,100003.39
2023-03-12T09:40:50.440Z,100004.48
2023-03-12T09:48:39.710Z,100003.30
2023-03-12T09:51:25.283Z,100008.74
2023-03-12T09:54:03.440Z,100006.01
2023-03-12T09:57:08.834Z,100011.17
2023-03-12T09:59:42.763Z,100016.12
2023-03-12T10:02:57.739Z,100010.58
2023-03-12T10:06:07.071Z,100013.30
2023-03-12T10:09:07.894Z,100017.95
2023-03-12T10:12:36.435Z,100016.86
2023-03-12T10:15:41.118Z,100018.94
2023-03-12T10:18:54.106Z,100024.27
2023-03-12T10:21:54.780Z,100023.63
2023-03-12T10:24:57.196Z,100023.33
2023-03-12T10:27:40.335Z,100021.00
2023-03-12T10:30:28.303Z,100023.80
2023-03-12T10:33:10.366Z,100025.31
2023-03-12T10:35:54.490Z,100022.88
2023-03-12T10:38:36.199Z,100029.45
2023-03-12T10:41:44.136Z,100031.92
2023-03-12T10:44:43.759Z,100032.63
2023-03-12T10:47:44.397Z,100026.16
2023-03-12T10:50:23.621Z,100029.23
2023-03-12T10:53:19.180Z,100027.36
2023-03-12T10:56:47.406Z,100025.80
2023-03-12T10:59:28.946Z,100026.07
2023-03-12T11:02:40.237Z,100026.66
2023-03-12T11:05:55.173Z,100025.71
2023-03-12T11:08:38.279Z,100026.89
2023-03-12T11:11:37.586Z,100020.08
2023-03-12T11:14:18.863Z,100022.92
2023-03-12T11:17:00.938Z,100024.65
2023-03-12T11:19:37.502Z,100028.11
2023-03-12T11:22:37.386Z,100028.65
2023-03-12T11:25:42.669Z,100025.36
2023-03-12T11:28:40.906Z,100024.75
2023-03-12T11:31:47.488Z,100024.15
2023-03-12T11:34:41.962Z,100022.08
2023-03-12T11:38:19.699Z,100020.46
2023-03-12T11:40:58.437Z,100024.39
2023-03-12T11:43:43.886Z,100027.41
2023-03-12T11:47:07.578Z,100026.65
2023-03-12T11:50:13.223Z,100030.95
2023-03-12T11:53:12.832Z,100026.36
2023-03-12T11:56:07.381Z,100021.46
2023-03-12T11:59:03.088Z,100024.08
2023-03-12T12:02:08.898Z,100014.84
2023-03-12T12:05:17.395Z,100006.00
2023-03-12T12:08:16.931Z,100013.85
2023-03-12T12:11:35.426Z,100009.27
2023-03-12T12:14:59.511Z,100008.55
2023-03-12T12:18:10.792Z,100005.89
2023-03-12T12:21:20.070Z,100003.08
2023-03-12T12:24:18.122Z,100006.13
2023-03-12T12:27:29.300Z,99998.26
2023-03-12T12:30:51.922Z,100002.46
2023-03-12T12:34:04.669Z,100005.27
2023-03-12T12:36:50.125Z,100010.80
2023-03-12T12:39:43.113Z,100014.76
2023-03-12T12:42:33.879Z,100011.80
2023-03-12T12:45:15.419Z,100011.09
2023-03-12T12:48:17.130Z,100012.08
2023-03-12T12:51:08.703Z,100015.91
2023-03-12T12:54:06.223Z,100017.38
2023-03-12T12:57:04.669Z,100020.48
2023-03-12T13:00:21.439Z,100021.33
2023-03-12T13:03:08.354Z,100022.14
2023-03-12T13:06:06.050Z,100021.26
2023-03-12T13:09:27.711Z,100023.36
2023-03-12T13:12:11.452Z,100020.94
2023-03-12T13:14:52.895Z,100019.03
2023-03-12T13:18:16.827Z,100021.11
2023-03-12T13:21:12.056Z,100027.96
2023-03-12T13:24:08.212Z,100029.83
2023-03-12T13:26:59.253Z,100024.39
2023-03-12T13:29:41.435Z,100024.76
2023-03-12T13:32:40.473Z,100029.91
2023-03-12T13:35:45.414Z,100027.67
2023-03-12T13:39:01.423Z,100023.58
2023-03-12T13:42:03.852Z,100029.09
2023-03-12T13:44:53.562Z,100029.67
2023-03-12T13:47:47.196Z,100030.22
2023-03-12T13:50:26.431Z,100022.99
2023-03-12T13:53:19.160Z,100020.05
2023-03-12T13:56:24.138Z,100022.17
2023-03-12T13:59:29.138Z,100017.98
2023-03-12T14:06:13.648Z,100024.36
2023-03-12T14:09:30.813Z,100028.95
2023-03-12T14:12:40.642Z,100033.29
2023-03-12T14:15:12.907Z,100034.33
2023-03-12T14:17:59.278Z,100031.84
2023-03-12T14:20:34.372Z,100034.51
2023-03-12T14:23:28.318Z,100031.25
2023-03-12T14:26:04.404Z,100029.08
2023-03-12T14:28:44.320Z,100025.76
2023-03-12T14:34:32.051Z,100025.47
2023-03-12T14:37:31.127Z,100029.85
2023-03-12T14:40:51.810Z,100025.61
2023-03-12T14:43:36.184Z,100019.66
2023-03-12T14:46:26.004Z,100024.04
2023-03-12T14:49:23.988Z,100018.41
2023-03-12T14:52:06.355Z,100013.45
2023-03-12T14:54:43.465Z,100008.28
2023-03-12T14:57:27.117Z,100002.72
2023-03-12T15:00:13.996Z,99997.32
2023-03-12T15:02:56.851Z,99994.58
2023-03-12T15:05:37.853Z,99988.39
2023-03-12T15:08:22.288Z,99989.77
2023-03-12T15:11:01.440Z,99989.71
2023-03-12T15:13:43.110Z,99986.02
2023-03-12T15:16:30.248Z,99986.63
2023-03-12T15:19:23.299Z,99985.38
2023-03-12T15:22:01.849Z,99979.79
2023-03-12T15:24:48.626Z,99976.86
2023-03-12T15:27:43.804Z,99970.84
2023-03-12T15:30:41.674Z,99966.05
2023-03-12T15:33:18.626Z,99967.80
2023-03-12T15:36:18.109Z,99970.13
2023-03-12T15:43:14.403Z,99970.88
2023-03-12T15:46:29.414Z,99966.88
2023-03-12T15:49:36.962Z,99964.69
2023-03-12T15:52:38.560Z,99962.00
2023-03-12T15:55:31.168Z,99961.38
2023-03-12T15:58:38.961Z,99958.86
2023-03-12T16:01:36.190Z,99955.90
2023-03-12T16:04:27.267Z,99955.65
2023-03-12T16:07:14.653Z,99958.85
2023-03-12T16:09:55.582Z,99966.71
2023-03-12T16:12:28.821Z,99975.23
2023-03-12T16:15:03.281Z,99981.60
2023-03-12T16:17:49.785Z,99983.71
2023-03-12T16:20:35.532Z,99986.59
2023-03-12T16:23:14.581Z,99981.62
2023-03-12T16:26:00.770Z,99979.66
2023-03-12T16:28:45.264Z,99979.95
2023-03-12T16:31:26.434Z,99981.09
2023-03-12T16:34:16.696Z,99984.78
2023-03-12T16:37:03.216Z,99982.29
2023-03-12T16:39:52.598Z,99976.19
2023-03-12T16:46:00.945Z,99977.18
2023-03-12T16:48:47.013Z,99975.47
2023-03-12T16:51:32.863Z,99969.46
2023-03-12T16:54:14.235Z,99966.20
2023-03-12T16:56:57.037Z,99961.52
2023-03-12T16:59:34.619Z,99952.81
2023-03-12T17:02:24.828Z,99949.73
2023-03-12T17:05:16.860Z,99944.91
2023-03-12T17:08:11.739Z,99948.21
2023-03-12T17:10:45.508Z,99955.91
2023-03-12T17:13:33.008Z,99957.20
2023-03-12T17:16:10.431Z,99954.05
2023-03-12T17:18:47.042Z,99950.14
2023-03-12T17:21:27.394Z,99954.36
2023-03-12T17:24:08.839Z,99960.42
2023-03-12T17:26:43.639Z,99961.61
2023-03-12T17:29:12.596Z,99962.41
2023-03-12T17:31:41.676Z,99957.71
2023-03-12T17:34:22.074Z,99956.89
2023-03-12T17:36:57.717Z,99964.39
2023-03-12T17:39:52.221Z,99973.55
2023-03-12T17:42:34.550Z,99969.66
2023-03-12T17:45:10.854Z,99971.45
2023-03-12T17:47:52.477Z,99975.12
2023-03-12T17:50:21.818Z,99977.55
2023-03-12T17:53:02.330Z,99972.77
2023-03-12T17:55:31.290Z,99975.40
2023-03-12T17:58:02.306Z,99984.54
2023-03-12T18:00:35.052Z,99979.36
2023-03-12T18:03:08.386Z,99972.82
2023-03-12T18:05:43.928Z,99974.91
2023-03-12T18:08:19.215Z,99972.91
2023-03-12T18:11:10.098Z,99964.23
2023-03-12T18:13:44.398Z,99951.05
2023-03-12T18:16:18.577Z,99950.08
2023-03-12T18:18:53.406Z,99949.77
2023-03-12T18:21:35.905Z,99944.66
2023-03-12T18:24:25.867Z,99931.85
2023-03-12T18:27:06.698Z,99931.95
2023-03-12T18:29:41.071Z,99934.30
2023-03-12T18:32:24.152Z,99939.52
2023-03-12T18:35:06.035Z,99942.52
2023-03-12T18:37:51.765Z,99946.32
2023-03-12T18:40:32.438Z,99950.30
2023-03-12T18:43:04.497Z,99952.55
2023-03-12T18:45:45.551Z,99957.21
2023-03-12T18:48:21.786Z,99954.79
2023-03-12T18:51:13.764Z,99960.29
2023-03-12T18:54:04.670Z,99955.50
2023-03-12T18:56:43.050Z,99951.75
2023-03-12T18:59:21.494Z,99947.66
2023-03-12T19:02:14.098Z,99943.48
2023-03-12T19:04:48.560Z,99936.05
2023-03-12T19:07:21.968Z,99939.09
2023-03-12T19:10:40.497Z,99947.66
2023-03-12T19:13:27.379Z,99936.34
2023-03-12T19:16:10.344Z,99928.27
2023-03-12T19:18:59.162Z,99919.48
2023-03-12T19:21:32.806Z,99909.70
2023-03-12T19:24:07.413Z,99899.41
2023-03-12T19:26:57.027Z,99891.23
2023-03-12T19:29:36.633Z,99886.79
2023-03-12T19:32:11.895Z,99884.04
2023-03-12T19:34:50.082Z,99888.52
2023-03-12T19:37:34.647Z,99890.26
2023-03-12T19:40:09.118Z,99892.36
2023-03-12T19:42:44.846Z,99890.82
2023-03-12T19:45:20.361Z,99893.89
2023-03-12T19:47:55.051Z,99896.41
2023-03-12T19:50:30.016Z,99893.12
2023-03-12T19:53:25.879Z,99893.84
2023-03-12T19:56:00.820Z,99894.89
2023-03-12T19:58:32.506Z,99893.30
2023-03-12T20:01:10.147Z,99891.88
2023-03-12T20:03:45.630Z,99892.86
2023-03-12T20:06:20.540Z,99893.12
2023-03-12T20:08:50.684Z,99894.27
2023-03-12T20:11:28.609Z,99892.66
2023-03-12T20:14:09.658Z,99887.44
2023-03-12T20:16:43.325Z,99876.36
2023-03-12T20:19:18.803Z,99875.13
2023-03-12T20:21:52.899Z,99877.34
2023-03-12T20:24:24.108Z,99876.30
2023-03-12T20:26:58.305Z,99876.09
2023-03-12T20:29:37.770Z,99884.30
2023-03-12T20:32:08.774Z,99880.77
2023-03-12T20:34:37.476Z,99877.45
2023-03-12T20:37:11.877Z,99877.16
2023-03-12T20:39:44.149Z,99873.61
2023-03-12T20:42:15.311Z,99875.52
2023-03-12T20:44:45.082Z,99873.95
2023-03-12T20:47:23.985Z,99874.43
2023-03-12T20:50:04.732Z,99876.60
2023-03-12T20:52:43.539Z,99879.79
2023-03-12T20:55:24.952Z,99879.70
2023-03-12T20:58:02.087Z,99879.01
2023-03-12T21:00:34.653Z,99883.02
2023-03-12T21:03:19.387Z,99884.27
2023-03-12T21:06:02.972Z,99888.61
2023-03-12T21:08:37.195Z,99888.41
2023-03-12T21:11:11.964Z,99883.56
2023-03-12T21:13:47.450Z,99880.61
2023-03-12T21:16:16.450Z,99876.44
2023-03-12T21:18:54.792Z,99873.52
2023-03-12T21:21:33.185Z,99873.23
2023-03-12T21:24:09.841Z,99870.11
2023-03-12T21:26:39.846Z,99864.13
2023-03-12T21:29:08.732Z,99863.79
2023-03-12T21:31:44.059Z,99860.14
2023-03-12T21:34:25.135Z,99854.52
2023-03-12T21:37:17.294Z,99852.59
2023-03-12T21:40:09.452Z,99851.75
2023-03-12T21:42:58.485Z,99845.80
2023-03-12T21:45:41.739Z,99837.41
2023-03-12T21:48:22.627Z,99831.27
2023-03-12T21:51:06.650Z,99829.30
2023-03-12T21:53:46.174Z,99825.56
2023-03-12T21:56:24.188Z,99823.52
2023-03-12T21:58:57.527Z,99821.93
2023-03-12T22:02:31.936Z,99817.98
2023-03-12T22:05:21.800Z,99815.84
2023-03-12T22:08:25.519Z,99815.52
2023-03-12T22:11:12.995Z,99811.55
2023-03-12T22:13:59.923Z,99810.75
2023-03-12T22:16:33.505Z,99812.76
2023-03-12T22:19:28.165Z,99809.94
2023-03-12T22:22:22.147Z,99815.79
2023-03-12T22:25:06.318Z,99814.51
2023-03-12T22:31:43.182Z,99804.55
2023-03-12T22:34:18.151Z,99803.33
2023-03-12T22:36:53.169Z,99803.89
2023-03-12T22:39:24.689Z,99805.12
2023-03-12T22:42:01.937Z,99804.34
2023-03-12T22:44:46.912Z,99799.06
2023-03-12T22:47:33.262Z,99800.96
2023-03-12T22:50:05.458Z,99799.51
2023-03-12T22:52:39.649Z,99797.13
2023-03-12T22:55:28.950Z,99793.44
2023-03-12T22:58:16.286Z,99790.93
2023-03-12T23:01:02.574Z,99792.29
2023-03-12T23:03:48.188Z,99790.10
2023-03-12T23:06:32.858Z,99787.89
2023-03-12T23:09:06.448Z,99791.20
2023-03-12T23:11:42.921Z,99793.38
2023-03-12T23:14:16.834Z,99792.09
2023-03-12T23:16:50.904Z,99787.48
2023-03-12T23:19:19.827Z,99779.42
2023-03-12T23:22:12.533Z,99772.90
2023-03-12T23:24:42.691Z,99774.69
2023-03-12T23:27:12.005Z,99770.17
2023-03-12T23:29:40.522Z,99762.52
2023-03-12T23:32:10.364Z,99758.45
2023-03-12T23:34:44.838Z,99751.64
2023-03-12T23:37:22.626Z,99749.01
2023-03-12T23:39:55.307Z,99743.94
2023-03-12T23:42:31.516Z,99742.02
2023-03-12T23:45:00.308Z,99737.77
2023-03-12T23:47:31.266Z,99737.16
2023-03-12T23:50:06.206Z,99734.44
2023-03-12T23:52:34.730Z,99730.77
2023-03-12T23:55:07.156Z,99720.79
2023-03-12T23:57:41.409Z,99724.20
